sensor_id;sensor_type;location;lat;lon;timestamp;pressure;altitude;pressure_sealevel;temperature;humidity
16525;BME280;8375;33.594;-117.718;2024-01-30T00:00:35;100353.28;;;24.33;27.50
16525;BME280;8375;33.594;-117.718;2024-01-30T00:03:04;100345.75;;;24.23;28.32
16525;BME280;8375;33.594;-117.718;2024-01-30T00:05:32;100356.56;;;24.08;27.11
16525;BME280;8375;33.594;-117.718;2024-01-30T00:08:01;100357.75;;;23.99;27.79
16525;BME280;8375;33.594;-117.718;2024-01-30T00:10:30;100355.50;;;23.89;27.90
16525;BME280;8375;33.594;-117.718;2024-01-30T00:13:00;100354.06;;;23.86;28.07
16525;BME280;8375;33.594;-117.718;2024-01-30T00:15:31;100355.06;;;23.72;28.52
16525;BME280;8375;33.594;-117.718;2024-01-30T00:17:59;100364.41;;;23.61;28.74
16525;BME280;8375;33.594;-117.718;2024-01-30T00:20:28;100367.69;;;23.56;28.69
16525;BME280;8375;33.594;-117.718;2024-01-30T00:22:56;100378.06;;;23.51;28.90
16525;BME280;8375;33.594;-117.718;2024-01-30T00:25:25;100371.88;;;23.31;28.30
16525;BME280;8375;33.594;-117.718;2024-01-30T00:27:53;100383.25;;;23.24;28.67
16525;BME280;8375;33.594;-117.718;2024-01-30T00:30:22;100380.63;;;22.89;28.51
16525;BME280;8375;33.594;-117.718;2024-01-30T00:32:53;100385.63;;;22.77;29.21
16525;BME280;8375;33.594;-117.718;2024-01-30T00:35:22;100385.22;;;22.74;29.05
16525;BME280;8375;33.594;-117.718;2024-01-30T00:37:50;100392.06;;;22.68;29.84
16525;BME280;8375;33.594;-117.718;2024-01-30T00:40:20;100387.41;;;22.70;29.73
16525;BME280;8375;33.594;-117.718;2024-01-30T00:42:49;100388.88;;;22.73;30.36
16525;BME280;8375;33.594;-117.718;2024-01-30T00:45:17;100401.47;;;22.70;31.83
16525;BME280;8375;33.594;-117.718;2024-01-30T00:47:46;100402.88;;;22.66;32.33
16525;BME280;8375;33.594;-117.718;2024-01-30T00:50:17;100408.69;;;22.55;32.10
16525;BME280;8375;33.594;-117.718;2024-01-30T00:52:46;100404.56;;;22.46;30.78
16525;BME280;8375;33.594;-117.718;2024-01-30T00:55:14;100410.13;;;22.36;29.98
16525;BME280;8375;33.594;-117.718;2024-01-30T00:57:43;100413.91;;;22.26;30.66
16525;BME280;8375;33.594;-117.718;2024-01-30T01:00:12;100414.00;;;22.11;30.67
16525;BME280;8375;33.594;-117.718;2024-01-30T01:02:43;100417.81;;;22.09;30.62
16525;BME280;8375;33.594;-117.718;2024-01-30T01:05:12;100423.22;;;22.01;30.84
16525;BME280;8375;33.594;-117.718;2024-01-30T01:07:42;100425.81;;;21.94;31.23
16525;BME280;8375;33.594;-117.718;2024-01-30T01:10:11;100423.84;;;21.81;30.40
16525;BME280;8375;33.594;-117.718;2024-01-30T01:12:40;100420.94;;;21.76;32.60
16525;BME280;8375;33.594;-117.718;2024-01-30T01:15:09;100427.97;;;21.68;33.45
16525;BME280;8375;33.594;-117.718;2024-01-30T01:17:38;100426.97;;;21.54;33.40
16525;BME280;8375;33.594;-117.718;2024-01-30T01:20:08;100431.47;;;21.39;33.20
16525;BME280;8375;33.594;-117.718;2024-01-30T01:22:37;100425.38;;;21.23;33.59
16525;BME280;8375;33.594;-117.718;2024-01-30T01:25:08;100430.91;;;21.14;31.40
16525;BME280;8375;33.594;-117.718;2024-01-30T01:27:37;100436.44;;;21.04;32.53
16525;BME280;8375;33.594;-117.718;2024-01-30T01:30:09;100443.81;;;20.93;31.66
16525;BME280;8375;33.594;-117.718;2024-01-30T01:32:41;100441.09;;;20.87;33.95
16525;BME280;8375;33.594;-117.718;2024-01-30T01:35:15;100441.66;;;20.74;34.99
16525;BME280;8375;33.594;-117.718;2024-01-30T01:37:44;100440.66;;;20.60;33.10
16525;BME280;8375;33.594;-117.718;2024-01-30T01:40:14;100442.16;;;20.54;33.21
16525;BME280;8375;33.594;-117.718;2024-01-30T01:42:43;100445.84;;;20.30;33.60
16525;BME280;8375;33.594;-117.718;2024-01-30T01:45:12;100441.13;;;20.17;33.18
16525;BME280;8375;33.594;-117.718;2024-01-30T01:47:40;100449.09;;;20.08;34.28
16525;BME280;8375;33.594;-117.718;2024-01-30T01:50:09;100445.06;;;19.98;33.84
16525;BME280;8375;33.594;-117.718;2024-01-30T01:52:39;100449.50;;;19.97;34.17
16525;BME280;8375;33.594;-117.718;2024-01-30T01:55:09;100447.19;;;19.94;34.66
16525;BME280;8375;33.594;-117.718;2024-01-30T01:57:39;100449.69;;;19.87;35.12
16525;BME280;8375;33.594;-117.718;2024-01-30T02:00:08;100457.44;;;19.81;36.82
16525;BME280;8375;33.594;-117.718;2024-01-30T02:02:39;100451.88;;;19.75;37.69
16525;BME280;8375;33.594;-117.718;2024-01-30T02:05:08;100448.00;;;19.63;37.54
16525;BME280;8375;33.594;-117.718;2024-01-30T02:07:38;100454.63;;;19.50;38.89
16525;BME280;8375;33.594;-117.718;2024-01-30T02:10:08;100456.00;;;19.38;38.94
16525;BME280;8375;33.594;-117.718;2024-01-30T02:12:38;100458.97;;;19.27;39.55
16525;BME280;8375;33.594;-117.718;2024-01-30T02:15:07;100454.59;;;19.19;39.60
16525;BME280;8375;33.594;-117.718;2024-01-30T02:17:36;100454.59;;;19.11;40.54
16525;BME280;8375;33.594;-117.718;2024-01-30T02:20:05;100450.69;;;18.98;40.68
16525;BME280;8375;33.594;-117.718;2024-01-30T02:22:37;100455.91;;;18.90;40.59
16525;BME280;8375;33.594;-117.718;2024-01-30T02:25:06;100446.56;;;18.79;40.54
16525;BME280;8375;33.594;-117.718;2024-01-30T02:27:34;100454.28;;;18.72;41.39
16525;BME280;8375;33.594;-117.718;2024-01-30T02:30:04;100454.28;;;18.64;41.39
16525;BME280;8375;33.594;-117.718;2024-01-30T02:32:33;100451.16;;;18.52;40.44
16525;BME280;8375;33.594;-117.718;2024-01-30T02:35:01;100442.44;;;18.43;40.91
16525;BME280;8375;33.594;-117.718;2024-01-30T02:37:30;100452.78;;;18.37;40.90
16525;BME280;8375;33.594;-117.718;2024-01-30T02:40:00;100448.34;;;18.29;42.00
16525;BME280;8375;33.594;-117.718;2024-01-30T02:42:29;100441.94;;;18.23;41.44
16525;BME280;8375;33.594;-117.718;2024-01-30T02:44:58;100438.16;;;18.17;42.00
16525;BME280;8375;33.594;-117.718;2024-01-30T02:47:26;100439.28;;;18.07;42.51
16525;BME280;8375;33.594;-117.718;2024-01-30T02:49:55;100435.78;;;17.98;43.19
16525;BME280;8375;33.594;-117.718;2024-01-30T02:52:24;100444.31;;;17.92;41.77
16525;BME280;8375;33.594;-117.718;2024-01-30T02:54:52;100441.66;;;17.83;42.53
16525;BME280;8375;33.594;-117.718;2024-01-30T02:57:22;100439.53;;;17.79;43.19
16525;BME280;8375;33.594;-117.718;2024-01-30T02:59:51;100438.53;;;17.71;43.76
16525;BME280;8375;33.594;-117.718;2024-01-30T03:02:20;100442.75;;;17.64;44.10
16525;BME280;8375;33.594;-117.718;2024-01-30T03:04:48;100439.94;;;17.57;43.86
16525;BME280;8375;33.594;-117.718;2024-01-30T03:07:17;100445.47;;;17.46;43.23
16525;BME280;8375;33.594;-117.718;2024-01-30T03:09:46;100442.34;;;17.42;44.19
16525;BME280;8375;33.594;-117.718;2024-01-30T03:12:14;100438.38;;;17.38;44.61
16525;BME280;8375;33.594;-117.718;2024-01-30T03:14:44;100443.44;;;17.32;44.65
16525;BME280;8375;33.594;-117.718;2024-01-30T03:17:13;100438.81;;;17.25;44.86
16525;BME280;8375;33.594;-117.718;2024-01-30T03:19:42;100437.78;;;17.18;44.41
16525;BME280;8375;33.594;-117.718;2024-01-30T03:22:10;100441.69;;;17.14;45.16
16525;BME280;8375;33.594;-117.718;2024-01-30T03:24:39;100445.78;;;17.08;46.15
16525;BME280;8375;33.594;-117.718;2024-01-30T03:27:08;100447.06;;;17.04;45.95
16525;BME280;8375;33.594;-117.718;2024-01-30T03:29:37;100445.84;;;16.98;45.91
16525;BME280;8375;33.594;-117.718;2024-01-30T03:32:07;100448.75;;;16.95;46.01
16525;BME280;8375;33.594;-117.718;2024-01-30T03:34:36;100447.59;;;16.90;46.36
16525;BME280;8375;33.594;-117.718;2024-01-30T03:37:04;100455.75;;;16.86;47.85
16525;BME280;8375;33.594;-117.718;2024-01-30T03:39:34;100459.00;;;16.80;47.83
16525;BME280;8375;33.594;-117.718;2024-01-30T03:42:04;100452.84;;;16.71;47.55
16525;BME280;8375;33.594;-117.718;2024-01-30T03:44:33;100456.38;;;16.62;48.79
16525;BME280;8375;33.594;-117.718;2024-01-30T03:47:01;100461.41;;;16.55;48.43
16525;BME280;8375;33.594;-117.718;2024-01-30T03:49:32;100466.88;;;16.44;49.22
16525;BME280;8375;33.594;-117.718;2024-01-30T03:52:00;100461.94;;;16.41;49.78
16525;BME280;8375;33.594;-117.718;2024-01-30T03:54:29;100466.50;;;16.39;51.01
16525;BME280;8375;33.594;-117.718;2024-01-30T03:56:57;100469.56;;;16.34;51.01
16525;BME280;8375;33.594;-117.718;2024-01-30T03:59:26;100463.16;;;16.28;50.62
16525;BME280;8375;33.594;-117.718;2024-01-30T04:01:57;100468.97;;;16.22;51.93
16525;BME280;8375;33.594;-117.718;2024-01-30T04:04:26;100477.56;;;16.15;52.35
16525;BME280;8375;33.594;-117.718;2024-01-30T04:06:56;100476.13;;;16.02;53.05
16525;BME280;8375;33.594;-117.718;2024-01-30T04:09:25;100472.44;;;15.95;52.63
16525;BME280;8375;33.594;-117.718;2024-01-30T04:11:55;100472.19;;;15.88;51.93
16525;BME280;8375;33.594;-117.718;2024-01-30T04:14:24;100482.25;;;15.83;50.83
16525;BME280;8375;33.594;-117.718;2024-01-30T04:16:53;100482.53;;;15.80;52.28
16525;BME280;8375;33.594;-117.718;2024-01-30T04:19:21;100480.38;;;15.75;52.52
16525;BME280;8375;33.594;-117.718;2024-01-30T04:21:50;100489.59;;;15.69;52.69
16525;BME280;8375;33.594;-117.718;2024-01-30T04:24:20;100485.91;;;15.62;52.82
16525;BME280;8375;33.594;-117.718;2024-01-30T04:26:49;100482.09;;;15.57;51.69
16525;BME280;8375;33.594;-117.718;2024-01-30T04:29:17;100492.84;;;15.53;53.24
16525;BME280;8375;33.594;-117.718;2024-01-30T04:31:46;100496.44;;;15.52;53.96
16525;BME280;8375;33.594;-117.718;2024-01-30T04:34:15;100497.69;;;15.48;54.84
16525;BME280;8375;33.594;-117.718;2024-01-30T04:36:45;100493.44;;;15.37;54.87
16525;BME280;8375;33.594;-117.718;2024-01-30T04:39:13;100494.16;;;15.30;54.75
16525;BME280;8375;33.594;-117.718;2024-01-30T04:41:43;100503.53;;;15.22;55.14
16525;BME280;8375;33.594;-117.718;2024-01-30T04:44:12;100498.59;;;15.19;54.55
16525;BME280;8375;33.594;-117.718;2024-01-30T04:46:41;100500.66;;;15.16;54.51
16525;BME280;8375;33.594;-117.718;2024-01-30T04:49:09;100501.38;;;15.08;53.91
16525;BME280;8375;33.594;-117.718;2024-01-30T04:51:38;100502.72;;;15.02;54.12
16525;BME280;8375;33.594;-117.718;2024-01-30T04:54:06;100500.56;;;14.98;54.99
16525;BME280;8375;33.594;-117.718;2024-01-30T04:56:35;100504.41;;;14.93;54.11
16525;BME280;8375;33.594;-117.718;2024-01-30T04:59:05;100506.63;;;14.88;55.16
16525;BME280;8375;33.594;-117.718;2024-01-30T05:01:35;100512.94;;;14.86;56.13
16525;BME280;8375;33.594;-117.718;2024-01-30T05:04:04;100521.19;;;14.81;56.02
16525;BME280;8375;33.594;-117.718;2024-01-30T05:06:32;100522.44;;;14.77;55.12
16525;BME280;8375;33.594;-117.718;2024-01-30T05:09:01;100524.47;;;14.73;55.94
16525;BME280;8375;33.594;-117.718;2024-01-30T05:11:30;100523.78;;;14.71;56.42
16525;BME280;8375;33.594;-117.718;2024-01-30T05:13:59;100531.19;;;14.66;56.36
16525;BME280;8375;33.594;-117.718;2024-01-30T05:16:30;100525.81;;;14.58;56.87
16525;BME280;8375;33.594;-117.718;2024-01-30T05:18:58;100538.47;;;14.52;56.33
16525;BME280;8375;33.594;-117.718;2024-01-30T05:21:27;100536.38;;;14.46;56.09
16525;BME280;8375;33.594;-117.718;2024-01-30T05:23:56;100535.00;;;14.42;56.56
16525;BME280;8375;33.594;-117.718;2024-01-30T05:26:24;100541.47;;;14.38;56.83
16525;BME280;8375;33.594;-117.718;2024-01-30T05:28:53;100536.66;;;14.33;57.90
16525;BME280;8375;33.594;-117.718;2024-01-30T05:31:22;100545.28;;;14.24;57.48
16525;BME280;8375;33.594;-117.718;2024-01-30T05:33:54;100543.06;;;14.19;58.10
16525;BME280;8375;33.594;-117.718;2024-01-30T05:36:23;100548.97;;;14.12;57.96
16525;BME280;8375;33.594;-117.718;2024-01-30T05:38:52;100542.47;;;14.06;59.28
16525;BME280;8375;33.594;-117.718;2024-01-30T05:41:20;100546.03;;;14.05;57.17
16525;BME280;8375;33.594;-117.718;2024-01-30T05:43:49;100545.09;;;14.06;57.62
16525;BME280;8375;33.594;-117.718;2024-01-30T05:46:17;100546.88;;;14.05;58.69
16525;BME280;8375;33.594;-117.718;2024-01-30T05:48:46;100555.94;;;14.01;58.79
16525;BME280;8375;33.594;-117.718;2024-01-30T05:51:16;100553.59;;;13.98;57.73
16525;BME280;8375;33.594;-117.718;2024-01-30T05:53:45;100547.00;;;13.94;57.53
16525;BME280;8375;33.594;-117.718;2024-01-30T05:56:13;100554.94;;;13.92;57.59
16525;BME280;8375;33.594;-117.718;2024-01-30T05:58:42;100554.22;;;13.90;57.82
16525;BME280;8375;33.594;-117.718;2024-01-30T06:01:11;100549.53;;;13.84;58.32
16525;BME280;8375;33.594;-117.718;2024-01-30T06:03:39;100554.84;;;13.73;60.01
16525;BME280;8375;33.594;-117.718;2024-01-30T06:06:11;100551.38;;;13.62;60.83
16525;BME280;8375;33.594;-117.718;2024-01-30T06:08:41;100556.56;;;13.62;60.38
16525;BME280;8375;33.594;-117.718;2024-01-30T06:11:11;100550.13;;;13.57;59.01
16525;BME280;8375;33.594;-117.718;2024-01-30T06:13:39;100546.66;;;13.56;60.16
16525;BME280;8375;33.594;-117.718;2024-01-30T06:16:10;100555.69;;;13.52;59.26
16525;BME280;8375;33.594;-117.718;2024-01-30T06:18:39;100552.38;;;13.50;60.96
16525;BME280;8375;33.594;-117.718;2024-01-30T06:21:08;100549.63;;;13.30;59.86
16525;BME280;8375;33.594;-117.718;2024-01-30T06:23:36;100553.09;;;13.31;62.02
16525;BME280;8375;33.594;-117.718;2024-01-30T06:26:07;100554.16;;;13.28;61.39
16525;BME280;8375;33.594;-117.718;2024-01-30T06:28:36;100549.88;;;13.27;60.74
16525;BME280;8375;33.594;-117.718;2024-01-30T06:31:05;100558.91;;;13.23;60.67
16525;BME280;8375;33.594;-117.718;2024-01-30T06:33:36;100560.94;;;13.19;61.19
16525;BME280;8375;33.594;-117.718;2024-01-30T06:36:05;100561.06;;;13.18;61.70
16525;BME280;8375;33.594;-117.718;2024-01-30T06:38:34;100557.78;;;13.16;61.97
16525;BME280;8375;33.594;-117.718;2024-01-30T06:41:03;100550.91;;;13.15;62.35
16525;BME280;8375;33.594;-117.718;2024-01-30T06:43:33;100557.78;;;13.16;62.79
16525;BME280;8375;33.594;-117.718;2024-01-30T06:46:01;100554.81;;;13.09;63.25
16525;BME280;8375;33.594;-117.718;2024-01-30T06:48:30;100561.25;;;13.05;62.38
16525;BME280;8375;33.594;-117.718;2024-01-30T06:50:59;100550.25;;;13.01;62.42
16525;BME280;8375;33.594;-117.718;2024-01-30T06:53:27;100550.38;;;13.00;62.46
16525;BME280;8375;33.594;-117.718;2024-01-30T06:55:56;100559.72;;;13.02;62.30
16525;BME280;8375;33.594;-117.718;2024-01-30T06:58:25;100560.53;;;13.03;62.46
16525;BME280;8375;33.594;-117.718;2024-01-30T07:00:55;100556.41;;;13.00;63.21
16525;BME280;8375;33.594;-117.718;2024-01-30T07:03:24;100560.47;;;12.93;63.77
16525;BME280;8375;33.594;-117.718;2024-01-30T07:05:53;100556.22;;;12.92;62.41
16525;BME280;8375;33.594;-117.718;2024-01-30T07:08:21;100557.03;;;12.93;63.75
16525;BME280;8375;33.594;-117.718;2024-01-30T07:10:50;100555.50;;;12.90;63.22
16525;BME280;8375;33.594;-117.718;2024-01-30T07:13:21;100558.38;;;12.87;62.25
16525;BME280;8375;33.594;-117.718;2024-01-30T07:15:50;100560.25;;;12.85;63.18
16525;BME280;8375;33.594;-117.718;2024-01-30T07:18:23;100550.19;;;12.80;64.39
16525;BME280;8375;33.594;-117.718;2024-01-30T07:20:52;100553.19;;;12.75;64.58
16525;BME280;8375;33.594;-117.718;2024-01-30T07:23:20;100550.13;;;12.70;64.65
16525;BME280;8375;33.594;-117.718;2024-01-30T07:25:49;100548.97;;;12.63;65.52
16525;BME280;8375;33.594;-117.718;2024-01-30T07:28:17;100548.50;;;12.58;65.12
16525;BME280;8375;33.594;-117.718;2024-01-30T07:30:46;100542.84;;;12.53;65.16
16525;BME280;8375;33.594;-117.718;2024-01-30T07:33:15;100548.53;;;12.46;65.15
16525;BME280;8375;33.594;-117.718;2024-01-30T07:35:46;100543.13;;;12.38;66.37
16525;BME280;8375;33.594;-117.718;2024-01-30T07:38:14;100534.13;;;12.31;66.33
16525;BME280;8375;33.594;-117.718;2024-01-30T07:40:43;100538.16;;;12.24;65.27
16525;BME280;8375;33.594;-117.718;2024-01-30T07:43:12;100535.09;;;12.18;64.88
16525;BME280;8375;33.594;-117.718;2024-01-30T07:45:40;100540.53;;;12.15;65.45
16525;BME280;8375;33.594;-117.718;2024-01-30T07:48:09;100549.53;;;12.11;66.95
16525;BME280;8375;33.594;-117.718;2024-01-30T07:50:38;100541.38;;;12.05;66.55
16525;BME280;8375;33.594;-117.718;2024-01-30T09:48:53;100502.34;;;10.52;78.16
16525;BME280;8375;33.594;-117.718;2024-01-30T09:51:22;100501.41;;;10.53;78.57
16525;BME280;8375;33.594;-117.718;2024-01-30T09:53:51;100503.06;;;10.54;79.14
16525;BME280;8375;33.594;-117.718;2024-01-30T09:56:21;100489.38;;;10.52;78.39
16525;BME280;8375;33.594;-117.718;2024-01-30T09:58:50;100482.31;;;10.54;78.53
16525;BME280;8375;33.594;-117.718;2024-01-30T10:01:19;100486.78;;;10.52;77.61
16525;BME280;8375;33.594;-117.718;2024-01-30T10:03:50;100482.44;;;10.52;77.44
16525;BME280;8375;33.594;-117.718;2024-01-30T10:06:20;100480.44;;;10.56;77.47
16525;BME280;8375;33.594;-117.718;2024-01-30T10:08:49;100481.28;;;10.56;75.90
16525;BME280;8375;33.594;-117.718;2024-01-30T10:11:18;100476.09;;;10.56;75.36
16525;BME280;8375;33.594;-117.718;2024-01-30T10:13:46;100479.38;;;10.59;76.50
16525;BME280;8375;33.594;-117.718;2024-01-30T10:16:15;100478.78;;;10.55;76.79
16525;BME280;8375;33.594;-117.718;2024-01-30T10:18:44;100468.50;;;10.53;76.93
16525;BME280;8375;33.594;-117.718;2024-01-30T10:21:13;100471.22;;;10.52;76.28
16525;BME280;8375;33.594;-117.718;2024-01-30T10:23:43;100461.16;;;10.47;77.17
16525;BME280;8375;33.594;-117.718;2024-01-30T10:26:12;100465.88;;;10.42;79.25
16525;BME280;8375;33.594;-117.718;2024-01-30T10:28:41;100470.41;;;10.38;78.73
16525;BME280;8375;33.594;-117.718;2024-01-30T10:31:09;100462.97;;;10.34;78.12
16525;BME280;8375;33.594;-117.718;2024-01-30T10:33:38;100467.03;;;10.25;78.50
16525;BME280;8375;33.594;-117.718;2024-01-30T10:36:07;100465.94;;;10.16;78.98
16525;BME280;8375;33.594;-117.718;2024-01-30T10:38:36;100458.38;;;10.13;78.51
16525;BME280;8375;33.594;-117.718;2024-01-30T10:41:08;100459.53;;;10.09;79.63
16525;BME280;8375;33.594;-117.718;2024-01-30T10:43:41;100459.09;;;10.02;80.25
16525;BME280;8375;33.594;-117.718;2024-01-30T10:46:14;100459.31;;;9.99;80.22
16525;BME280;8375;33.594;-117.718;2024-01-30T10:48:50;100448.94;;;9.99;80.99
16525;BME280;8375;33.594;-117.718;2024-01-30T10:51:22;100460.38;;;9.96;81.52
16525;BME280;8375;33.594;-117.718;2024-01-30T10:53:56;100450.81;;;9.97;81.80
16525;BME280;8375;33.594;-117.718;2024-01-30T10:56:26;100454.56;;;9.93;81.67
16525;BME280;8375;33.594;-117.718;2024-01-30T10:58:56;100451.38;;;9.89;81.38
16525;BME280;8375;33.594;-117.718;2024-01-30T11:01:25;100444.63;;;9.87;81.29
16525;BME280;8375;33.594;-117.718;2024-01-30T11:03:55;100437.19;;;9.82;81.92
16525;BME280;8375;33.594;-117.718;2024-01-30T11:06:24;100438.44;;;9.76;83.22
16525;BME280;8375;33.594;-117.718;2024-01-30T11:09:03;100433.16;;;9.78;83.93
16525;BME280;8375;33.594;-117.718;2024-01-30T11:11:50;100432.84;;;9.69;83.36
16525;BME280;8375;33.594;-117.718;2024-01-30T11:14:26;100429.28;;;9.33;83.97
16525;BME280;8375;33.594;-117.718;2024-01-30T11:16:57;100422.09;;;9.37;83.55
16525;BME280;8375;33.594;-117.718;2024-01-30T11:19:27;100421.06;;;9.39;83.29
16525;BME280;8375;33.594;-117.718;2024-01-30T11:21:56;100422.09;;;9.37;84.60
16525;BME280;8375;33.594;-117.718;2024-01-30T11:24:25;100418.69;;;9.36;84.47
16525;BME280;8375;33.594;-117.718;2024-01-30T11:26:58;100410.09;;;9.36;84.46
16525;BME280;8375;33.594;-117.718;2024-01-30T11:29:27;100410.72;;;9.39;84.21
16525;BME280;8375;33.594;-117.718;2024-01-30T11:31:57;100406.69;;;9.35;84.86
16525;BME280;8375;33.594;-117.718;2024-01-30T11:34:26;100410.91;;;9.36;85.18
16525;BME280;8375;33.594;-117.718;2024-01-30T11:36:56;100403.97;;;9.37;85.75
16525;BME280;8375;33.594;-117.718;2024-01-30T11:39:26;100399.50;;;9.39;86.68
16525;BME280;8375;33.594;-117.718;2024-01-30T11:41:55;100398.56;;;9.40;87.94
16525;BME280;8375;33.594;-117.718;2024-01-30T11:44:25;100398.78;;;9.37;88.76
16525;BME280;8375;33.594;-117.718;2024-01-30T11:46:54;100398.69;;;9.38;89.43
16525;BME280;8375;33.594;-117.718;2024-01-30T11:49:23;100388.34;;;9.38;89.30
16525;BME280;8375;33.594;-117.718;2024-01-30T11:51:53;100390.00;;;9.39;89.27
16525;BME280;8375;33.594;-117.718;2024-01-30T11:54:21;100396.81;;;9.41;89.14
16525;BME280;8375;33.594;-117.718;2024-01-30T11:56:50;100386.25;;;9.31;89.24
16525;BME280;8375;33.594;-117.718;2024-01-30T11:59:19;100382.84;;;9.30;89.63
16525;BME280;8375;33.594;-117.718;2024-01-30T12:01:51;100375.06;;;9.30;88.88
16525;BME280;8375;33.594;-117.718;2024-01-30T12:04:19;100380.47;;;9.27;90.55
16525;BME280;8375;33.594;-117.718;2024-01-30T12:06:51;100373.63;;;9.26;92.00
16525;BME280;8375;33.594;-117.718;2024-01-30T12:09:20;100378.91;;;9.24;92.35
16525;BME280;8375;33.594;-117.718;2024-01-30T12:11:49;100380.69;;;9.24;92.92
16525;BME280;8375;33.594;-117.718;2024-01-30T12:14:18;100390.19;;;9.23;93.36
16525;BME280;8375;33.594;-117.718;2024-01-30T12:16:50;100393.63;;;9.24;93.32
16525;BME280;8375;33.594;-117.718;2024-01-30T12:19:22;100379.94;;;9.22;93.95
16525;BME280;8375;33.594;-117.718;2024-01-30T12:21:55;100387.09;;;9.18;94.07
16525;BME280;8375;33.594;-117.718;2024-01-30T12:24:25;100387.09;;;9.18;93.24
16525;BME280;8375;33.594;-117.718;2024-01-30T12:26:57;100386.38;;;9.16;93.54
16525;BME280;8375;33.594;-117.718;2024-01-30T12:29:26;100390.81;;;9.14;92.15
16525;BME280;8375;33.594;-117.718;2024-01-30T12:31:56;100396.41;;;9.08;90.65
16525;BME280;8375;33.594;-117.718;2024-01-30T12:34:25;100394.34;;;9.00;92.11
16525;BME280;8375;33.594;-117.718;2024-01-30T12:36:54;100388.34;;;9.00;91.39
16525;BME280;8375;33.594;-117.718;2024-01-30T12:39:22;100391.13;;;8.97;92.91
16525;BME280;8375;33.594;-117.718;2024-01-30T12:41:52;100392.19;;;8.94;93.33
16525;BME280;8375;33.594;-117.718;2024-01-30T12:44:20;100384.81;;;8.88;93.96
16525;BME280;8375;33.594;-117.718;2024-01-30T12:46:49;100391.81;;;8.73;93.76
16525;BME280;8375;33.594;-117.718;2024-01-30T12:49:19;100390.69;;;8.77;94.04
16525;BME280;8375;33.594;-117.718;2024-01-30T12:51:48;100388.03;;;8.78;94.19
16525;BME280;8375;33.594;-117.718;2024-01-30T12:54:16;100390.50;;;8.80;94.24
16525;BME280;8375;33.594;-117.718;2024-01-30T12:56:45;100385.31;;;8.80;92.94
16525;BME280;8375;33.594;-117.718;2024-01-30T12:59:14;100389.56;;;8.68;91.52
16525;BME280;8375;33.594;-117.718;2024-01-30T13:01:42;100394.19;;;8.35;93.75
16525;BME280;8375;33.594;-117.718;2024-01-30T13:04:11;100398.78;;;8.45;93.63
16525;BME280;8375;33.594;-117.718;2024-01-30T13:06:42;100405.44;;;8.49;93.32
16525;BME280;8375;33.594;-117.718;2024-01-30T13:09:11;100402.84;;;8.49;92.37
16525;BME280;8375;33.594;-117.718;2024-01-30T13:11:39;100405.34;;;8.50;91.29
16525;BME280;8375;33.594;-117.718;2024-01-30T13:14:11;100406.34;;;8.48;91.10
16525;BME280;8375;33.594;-117.718;2024-01-30T13:16:39;100409.84;;;8.47;91.10
16525;BME280;8375;33.594;-117.718;2024-01-30T13:19:08;100410.97;;;8.43;92.04
16525;BME280;8375;33.594;-117.718;2024-01-30T13:21:37;100406.66;;;8.43;91.76
16525;BME280;8375;33.594;-117.718;2024-01-30T13:24:07;100408.50;;;8.41;91.91
16525;BME280;8375;33.594;-117.718;2024-01-30T13:26:36;100408.41;;;8.43;91.85
16525;BME280;8375;33.594;-117.718;2024-01-30T13:29:05;100409.44;;;8.40;92.35
16525;BME280;8375;33.594;-117.718;2024-01-30T13:31:34;100417.94;;;8.42;91.94
16525;BME280;8375;33.594;-117.718;2024-01-30T13:34:02;100413.22;;;8.34;92.07
16525;BME280;8375;33.594;-117.718;2024-01-30T13:36:31;100422.47;;;8.39;91.66
16525;BME280;8375;33.594;-117.718;2024-01-30T13:39:00;100420.06;;;8.35;90.77
16525;BME280;8375;33.594;-117.718;2024-01-30T13:41:30;100426.38;;;8.31;91.41
16525;BME280;8375;33.594;-117.718;2024-01-30T13:43:59;100430.03;;;8.42;91.09
16525;BME280;8375;33.594;-117.718;2024-01-30T13:46:29;100436.84;;;8.43;91.29
16525;BME280;8375;33.594;-117.718;2024-01-30T13:48:58;100434.38;;;8.41;91.82
16525;BME280;8375;33.594;-117.718;2024-01-30T13:51:27;100443.88;;;8.41;91.06
16525;BME280;8375;33.594;-117.718;2024-01-30T13:53:55;100444.72;;;8.41;90.93
16525;BME280;8375;33.594;-117.718;2024-01-30T13:56:24;100450.72;;;8.42;91.08
16525;BME280;8375;33.594;-117.718;2024-01-30T13:58:56;100455.81;;;8.43;92.07
16525;BME280;8375;33.594;-117.718;2024-01-30T14:01:26;100458.28;;;8.45;93.36
16525;BME280;8375;33.594;-117.718;2024-01-30T14:03:55;100457.34;;;8.46;93.55
16525;BME280;8375;33.594;-117.718;2024-01-30T14:06:23;100461.72;;;8.45;93.16
16525;BME280;8375;33.594;-117.718;2024-01-30T14:08:52;100470.41;;;8.44;91.79
16525;BME280;8375;33.594;-117.718;2024-01-30T14:11:20;100476.50;;;8.43;91.97
16525;BME280;8375;33.594;-117.718;2024-01-30T14:13:49;100467.16;;;8.41;92.14
16525;BME280;8375;33.594;-117.718;2024-01-30T14:16:20;100475.78;;;8.41;92.08
16525;BME280;8375;33.594;-117.718;2024-01-30T14:18:50;100481.75;;;8.42;91.93
16525;BME280;8375;33.594;-117.718;2024-01-30T14:21:19;100481.75;;;8.42;91.28
16525;BME280;8375;33.594;-117.718;2024-01-30T14:23:47;100486.19;;;8.40;92.11
16525;BME280;8375;33.594;-117.718;2024-01-30T14:26:16;100489.53;;;8.42;93.36
16525;BME280;8375;33.594;-117.718;2024-01-30T14:28:45;100499.88;;;8.42;93.86
16525;BME280;8375;33.594;-117.718;2024-01-30T14:31:13;100488.72;;;8.41;94.82
16525;BME280;8375;33.594;-117.718;2024-01-30T14:33:45;100493.16;;;8.39;94.11
16525;BME280;8375;33.594;-117.718;2024-01-30T14:36:13;100490.84;;;8.34;94.57
16525;BME280;8375;33.594;-117.718;2024-01-30T14:38:42;100499.72;;;8.30;95.11